Time;durP1;ratioP1;P1;durP2;ratioP2;P2;SDS_P1;SDS_P2;PMS_P1;PMS_P2;Temp;Humidity;BMP_temperature;BMP_pressure;BME280_temperature;BME280_humidity;BME280_pressure;Samples;Min_cycle;Max_cycle;Signal;HPM_P1;HPM_P2
2023/04/28 00:01:35;;;;;;;5.40;2.45;;;11.70;93.30;;;;;;5088832;28;20106;-73
2023/04/28 00:04:00;;;;;;;7.63;2.92;;;11.80;93.30;;;;;;5095196;28;20058;-73
2023/04/28 00:06:26;;;;;;;5.03;2.67;;;11.80;94.00;;;;;;5084412;28;20041;-73
2023/04/28 00:08:54;;;;;;;5.50;2.83;;;11.70;94.00;;;;;;5078096;28;20059;-73
2023/04/28 00:11:20;;;;;;;4.93;2.53;;;11.60;93.70;;;;;;5083411;28;20024;-73
2023/04/28 00:13:45;;;;;;;6.10;2.63;;;11.60;93.90;;;;;;5076391;28;20440;-73
2023/04/28 00:16:11;;;;;;;6.13;2.70;;;11.50;93.70;;;;;;5081614;28;20049;-73
2023/04/28 00:18:36;;;;;;;6.00;2.40;;;11.50;93.80;;;;;;5088333;28;20037;-73
2023/04/28 00:21:02;;;;;;;6.53;2.75;;;11.50;93.10;;;;;;5079721;28;20021;-73
2023/04/28 00:23:28;;;;;;;6.75;2.60;;;11.40;93.20;;;;;;5076624;28;20036;-73
2023/04/28 00:25:56;;;;;;;5.32;2.53;;;11.50;93.10;;;;;;5086780;28;20432;-73
2023/04/28 00:28:21;;;;;;;6.20;2.50;;;11.60;92.00;;;;;;5095368;28;20039;-73
2023/04/28 00:30:47;;;;;;;4.95;2.40;;;11.70;91.30;;;;;;5074960;28;20024;-73
2023/04/28 00:33:13;;;;;;;5.55;2.70;;;11.90;91.20;;;;;;5075555;28;20432;-73
2023/04/28 00:35:40;;;;;;;5.55;2.45;;;11.90;90.70;;;;;;5079820;28;20021;-73
2023/04/28 00:38:06;;;;;;;5.63;2.00;;;12.00;90.20;;;;;;5090043;28;20028;-73
2023/04/28 00:40:36;;;;;;;4.93;2.13;;;12.00;89.60;;;;;;5087006;28;20078;-73
2023/04/28 00:43:03;;;;;;;5.65;2.15;;;12.10;89.20;;;;;;5090962;28;20059;-73
2023/04/28 00:45:29;;;;;;;5.97;2.25;;;12.10;89.80;;;;;;5096408;28;20413;-73
2023/04/28 00:47:55;;;;;;;4.35;2.20;;;12.10;89.20;;;;;;5096612;28;20028;-73
2023/04/28 00:50:22;;;;;;;4.63;2.50;;;12.10;89.20;;;;;;5096477;28;20443;-73
2023/04/28 00:52:48;;;;;;;4.25;2.10;;;12.20;89.20;;;;;;5093262;28;20032;-72
2023/04/28 00:55:15;;;;;;;6.05;2.08;;;12.30;88.20;;;;;;5076009;28;20111;-73
2023/04/28 00:57:41;;;;;;;6.05;2.30;;;12.40;88.00;;;;;;5087839;28;20039;-73
2023/04/28 01:00:08;;;;;;;6.45;2.15;;;12.40;87.30;;;;;;5094370;28;20032;-73
2023/04/28 01:02:35;;;;;;;5.20;2.05;;;12.50;86.90;;;;;;5096268;28;20032;-73
2023/04/28 01:05:01;;;;;;;4.57;2.10;;;12.60;86.40;;;;;;5096345;28;20051;-73
2023/04/28 01:07:27;;;;;;;5.47;2.30;;;12.60;86.00;;;;;;5084843;28;20422;-73
2023/04/28 01:09:53;;;;;;;5.05;2.15;;;12.70;85.50;;;;;;5079067;28;20029;-73
2023/04/28 01:12:19;;;;;;;5.22;2.05;;;12.70;85.50;;;;;;5076728;28;20024;-73
2023/04/28 01:14:44;;;;;;;4.35;1.95;;;12.80;84.40;;;;;;5078802;28;20091;-73
2023/04/28 01:17:10;;;;;;;6.10;2.30;;;12.80;85.10;;;;;;5087997;28;20068;-73
2023/04/28 01:19:36;;;;;;;4.80;2.00;;;12.80;84.40;;;;;;5085259;28;20028;-72
2023/04/28 01:22:02;;;;;;;3.63;1.73;;;12.80;84.20;;;;;;5078441;28;20025;-73
2023/04/28 01:24:27;;;;;;;4.20;1.85;;;12.80;84.10;;;;;;5075957;28;20036;-73
2023/04/28 01:26:53;;;;;;;5.22;2.17;;;12.80;84.10;;;;;;5075980;28;20321;-73
2023/04/28 01:29:18;;;;;;;5.25;2.17;;;12.80;83.70;;;;;;5075770;28;20075;-73
2023/04/28 01:31:44;;;;;;;3.97;2.15;;;12.90;83.50;;;;;;5076007;28;20103;-73
2023/04/28 01:34:10;;;;;;;4.18;2.05;;;12.90;84.40;;;;;;5087105;28;20024;-73
2023/04/28 01:36:35;;;;;;;5.95;2.13;;;12.80;83.40;;;;;;5086239;28;20028;-73
2023/04/28 01:39:01;;;;;;;5.00;2.13;;;12.80;85.70;;;;;;5081376;28;20457;-73
2023/04/28 01:41:27;;;;;;;4.65;2.20;;;12.70;84.80;;;;;;5082451;28;20435;-73
2023/04/28 01:43:52;;;;;;;7.20;2.20;;;12.70;84.10;;;;;;5079205;28;20032;-73
2023/04/28 01:46:18;;;;;;;5.35;2.35;;;12.80;84.70;;;;;;5087669;28;20028;-72
2023/04/28 01:48:43;;;;;;;4.43;2.30;;;12.70;84.60;;;;;;5083060;28;20024;-73
2023/04/28 01:51:09;;;;;;;5.95;2.40;;;12.70;84.50;;;;;;5086270;28;20017;-73
2023/04/28 01:53:34;;;;;;;6.30;2.35;;;12.80;84.00;;;;;;5075467;28;20027;-73
2023/04/28 01:56:00;;;;;;;5.68;2.10;;;12.90;84.10;;;;;;5080005;28;20322;-72
2023/04/28 01:58:25;;;;;;;4.22;2.20;;;12.90;83.50;;;;;;5086273;28;20075;-72
2023/04/28 02:00:51;;;;;;;5.07;2.28;;;13.00;83.50;;;;;;5081373;28;20052;-73
2023/04/28 02:03:17;;;;;;;5.80;2.40;;;13.00;84.00;;;;;;5097297;28;20024;-72
2023/04/28 02:05:42;;;;;;;4.72;2.13;;;12.90;83.40;;;;;;5081557;28;20032;-74
2023/04/28 02:08:11;;;;;;;6.57;2.47;;;12.90;83.60;;;;;;5078830;28;20904;-74
2023/04/28 02:10:36;;;;;;;4.85;2.25;;;12.90;83.10;;;;;;5089472;28;20028;-74
2023/04/28 02:13:02;;;;;;;6.00;2.20;;;13.00;83.70;;;;;;5091319;28;20028;-73
2023/04/28 02:15:27;;;;;;;4.97;2.45;;;13.00;83.60;;;;;;5086636;28;20020;-73
2023/04/28 02:17:53;;;;;;;4.90;2.42;;;13.00;83.50;;;;;;5080900;28;20044;-74
2023/04/28 02:20:21;;;;;;;5.50;2.45;;;13.00;83.40;;;;;;5082073;28;20035;-73
2023/04/28 02:22:47;;;;;;;5.28;2.53;;;13.00;83.40;;;;;;5083631;28;20044;-73
2023/04/28 02:25:13;;;;;;;7.32;2.53;;;13.00;82.90;;;;;;5079850;28;20028;-72
2023/04/28 02:27:38;;;;;;;4.43;2.20;;;13.10;83.20;;;;;;5093557;28;20032;-73
2023/04/28 02:30:07;;;;;;;4.35;2.30;;;13.10;83.10;;;;;;5078943;28;20424;-73
2023/04/28 02:32:33;;;;;;;5.95;2.60;;;13.10;82.90;;;;;;5081574;28;20049;-73
2023/04/28 02:34:58;;;;;;;5.78;2.30;;;13.10;83.10;;;;;;5082178;28;20036;-73
2023/04/28 02:37:24;;;;;;;4.68;2.42;;;13.10;83.30;;;;;;5079985;28;20035;-73
2023/04/28 02:39:49;;;;;;;5.85;2.38;;;13.10;83.20;;;;;;5089127;28;20040;-73
2023/04/28 02:42:15;;;;;;;4.88;2.17;;;13.10;83.30;;;;;;5081811;28;20027;-72
2023/04/28 02:44:41;;;;;;;6.72;2.50;;;13.10;83.40;;;;;;5086655;28;20039;-73
2023/04/28 02:47:07;;;;;;;4.13;2.20;;;13.10;83.50;;;;;;5084245;28;20040;-72
2023/04/28 02:49:32;;;;;;;4.90;2.45;;;13.10;83.20;;;;;;5083253;28;20056;-73
2023/04/28 02:51:58;;;;;;;7.00;2.83;;;13.10;83.40;;;;;;5081189;28;20059;-73
2023/04/28 02:54:26;;;;;;;6.03;2.35;;;13.10;83.30;;;;;;5091161;28;20029;-73
2023/04/28 02:56:56;;;;;;;5.07;2.58;;;13.10;83.80;;;;;;5080824;28;20112;-73
2023/04/28 02:59:22;;;;;;;4.65;2.15;;;13.10;83.60;;;;;;5086162;28;20055;-72
2023/04/28 03:01:49;;;;;;;6.35;2.60;;;13.10;83.60;;;;;;5086321;28;20067;-73
2023/04/28 03:04:15;;;;;;;5.65;2.47;;;13.10;83.80;;;;;;5083167;28;20042;-72
2023/04/28 03:06:41;;;;;;;6.00;2.33;;;13.20;83.20;;;;;;5090322;28;20113;-72
2023/04/28 03:09:08;;;;;;;4.43;2.08;;;13.40;82.60;;;;;;5090467;28;20439;-73
2023/04/28 03:11:33;;;;;;;3.80;1.92;;;13.50;82.30;;;;;;5097330;28;20028;-72
2023/04/28 03:13:59;;;;;;;5.25;2.15;;;13.60;82.50;;;;;;5092435;28;20447;-73
2023/04/28 03:16:24;;;;;;;8.57;2.42;;;13.50;83.10;;;;;;5086443;28;20423;-72
2023/04/28 03:18:50;;;;;;;5.28;2.20;;;13.40;83.00;;;;;;5079176;28;20055;-73
2023/04/28 03:21:16;;;;;;;5.57;2.25;;;13.50;83.40;;;;;;5087148;28;20043;-73
2023/04/28 03:23:50;;;;;;;6.63;2.20;;;13.50;83.30;;;;;;5084110;28;20054;-72
2023/04/28 03:26:17;;;;;;;4.32;2.05;;;13.40;84.20;;;;;;5084320;28;20452;-72
2023/04/28 03:28:43;;;;;;;4.10;2.00;;;13.40;83.60;;;;;;5077809;28;20184;-72
2023/04/28 03:31:08;;;;;;;4.43;2.35;;;13.30;84.30;;;;;;5089812;28;20077;-72
2023/04/28 03:33:35;;;;;;;4.78;2.35;;;13.30;84.80;;;;;;5084801;28;20099;-72
2023/04/28 03:36:00;;;;;;;5.88;2.00;;;13.30;84.40;;;;;;5095163;28;20460;-72
2023/04/28 03:38:26;;;;;;;5.25;2.28;;;13.20;85.10;;;;;;5082188;28;20098;-72
2023/04/28 03:40:52;;;;;;;5.78;2.22;;;13.20;85.60;;;;;;5077302;28;20032;-73
2023/04/28 03:43:20;;;;;;;5.88;2.20;;;13.30;86.00;;;;;;5083677;28;20031;-72
2023/04/28 03:45:46;;;;;;;6.35;2.85;;;13.30;86.20;;;;;;5075819;28;20416;-72
2023/04/28 03:48:11;;;;;;;6.45;2.65;;;13.30;86.90;;;;;;5085747;28;20020;-72
2023/04/28 03:50:39;;;;;;;5.00;2.47;;;13.20;86.70;;;;;;5086866;28;20016;-72
2023/04/28 03:53:05;;;;;;;4.57;2.53;;;13.30;87.00;;;;;;5081520;28;20012;-72
2023/04/28 03:55:31;;;;;;;5.28;2.70;;;13.30;87.20;;;;;;5086129;28;20039;-72
2023/04/28 03:57:56;;;;;;;8.57;3.15;;;13.30;87.50;;;;;;5083112;28;20024;-72
2023/04/28 04:00:22;;;;;;;6.43;2.78;;;13.30;87.10;;;;;;5077165;28;20052;-72
2023/04/28 04:02:47;;;;;;;4.70;2.72;;;13.30;87.60;;;;;;5081138;28;20357;-72
2023/04/28 04:05:13;;;;;;;7.30;3.33;;;13.20;88.60;;;;;;5084471;28;20302;-72
2023/04/28 04:07:38;;;;;;;4.75;2.50;;;13.20;88.90;;;;;;5088923;28;20089;-73
2023/04/28 04:10:04;;;;;;;5.65;2.60;;;13.10;89.30;;;;;;5080634;28;20029;-72
2023/04/28 04:12:30;;;;;;;6.15;3.00;;;13.10;90.10;;;;;;5089257;28;20038;-72
2023/04/28 04:14:56;;;;;;;4.13;2.45;;;13.00;90.80;;;;;;5086067;28;20016;-72
2023/04/28 04:17:22;;;;;;;6.05;2.72;;;12.90;91.80;;;;;;5085934;28;20051;-72
2023/04/28 04:19:47;;;;;;;6.13;3.47;;;12.80;93.40;;;;;;5096008;28;20039;-72
2023/04/28 04:22:13;;;;;;;5.35;3.20;;;12.60;94.80;;;;;;5081586;28;20036;-72
2023/04/28 04:24:38;;;;;;;6.10;3.25;;;12.20;95.60;;;;;;5095873;28;20035;-73
2023/04/28 04:27:04;;;;;;;7.47;3.70;;;11.80;95.40;;;;;;5086052;28;20025;-74
2023/04/28 04:29:30;;;;;;;9.02;3.90;;;11.50;93.70;;;;;;5076732;28;20401;-75
2023/04/28 04:31:56;;;;;;;7.38;3.88;;;11.30;93.10;;;;;;5075758;28;20021;-75
2023/04/28 04:34:22;;;;;;;7.90;4.43;;;11.20;90.50;;;;;;5082392;28;20023;-76
2023/04/28 04:36:47;;;;;;;6.97;3.90;;;11.00;88.80;;;;;;5096956;28;20351;-75
2023/04/28 04:39:13;;;;;;;8.75;4.32;;;10.90;87.20;;;;;;5079246;28;20036;-76
2023/04/28 04:41:38;;;;;;;7.20;4.38;;;10.80;85.90;;;;;;5079092;28;20039;-75
2023/04/28 04:44:04;;;;;;;6.65;4.22;;;10.80;84.70;;;;;;5095068;28;20077;-76
2023/04/28 04:46:30;;;;;;;9.18;4.45;;;10.70;84.10;;;;;;5084766;28;20032;-76
2023/04/28 04:48:56;;;;;;;7.93;4.70;;;10.70;84.10;;;;;;5095211;28;20032;-75
2023/04/28 04:51:22;;;;;;;7.75;5.18;;;10.70;83.10;;;;;;5091082;28;20016;-75
2023/04/28 04:53:47;;;;;;;7.40;4.78;;;10.70;82.30;;;;;;5079245;28;20031;-75
2023/04/28 04:56:13;;;;;;;8.15;4.78;;;10.60;81.30;;;;;;5083883;28;20409;-75
2023/04/28 04:58:38;;;;;;;8.23;4.82;;;10.60;80.60;;;;;;5091016;28;20037;-75
2023/04/28 05:01:04;;;;;;;10.52;5.22;;;10.60;81.20;;;;;;5084444;28;20032;-77
2023/04/28 05:03:30;;;;;;;7.68;4.43;;;10.60;80.30;;;;;;5076395;28;20417;-76
2023/04/28 05:05:55;;;;;;;9.15;4.13;;;10.60;80.20;;;;;;5084782;28;20058;-76
2023/04/28 05:08:21;;;;;;;7.15;4.20;;;10.70;80.20;;;;;;5079072;28;20135;-75
2023/04/28 05:10:47;;;;;;;8.32;4.95;;;10.70;80.10;;;;;;5087838;28;20723;-75
2023/04/28 05:13:12;;;;;;;7.60;4.97;;;10.70;79.60;;;;;;5079966;28;20056;-76
2023/04/28 05:15:38;;;;;;;10.35;5.85;;;10.80;79.30;;;;;;5076570;28;20348;-75
2023/04/28 05:18:09;;;;;;;7.30;4.70;;;10.80;78.70;;;;;;5077269;28;20468;-75
2023/04/28 05:20:36;;;;;;;8.80;4.63;;;10.80;78.10;;;;;;5095841;28;20134;-76
2023/04/28 05:23:02;;;;;;;6.70;4.20;;;10.90;78.40;;;;;;5080210;28;20024;-75
2023/04/28 05:25:27;;;;;;;5.88;3.78;;;10.90;79.10;;;;;;5084654;28;20361;-75
2023/04/28 05:27:54;;;;;;;6.68;4.20;;;10.90;79.60;;;;;;5087702;28;20035;-75
2023/04/28 05:30:19;;;;;;;8.73;5.72;;;11.00;79.80;;;;;;5086441;28;20027;-75
2023/04/28 05:32:45;;;;;;;10.15;5.18;;;11.00;81.10;;;;;;5088057;28;20099;-75
2023/04/28 05:35:11;;;;;;;7.78;3.90;;;11.00;81.50;;;;;;5079289;28;20029;-75
2023/04/28 05:37:37;;;;;;;6.43;4.10;;;11.10;81.40;;;;;;5090869;28;20042;-75
2023/04/28 05:40:06;;;;;;;10.23;5.85;;;11.10;81.00;;;;;;5075880;28;20024;-75
2023/04/28 05:42:32;;;;;;;9.75;5.30;;;11.10;81.70;;;;;;5084396;28;20032;-75
2023/04/28 05:44:57;;;;;;;8.45;4.25;;;11.00;80.90;;;;;;5082428;28;20025;-75
2023/04/28 05:47:23;;;;;;;6.25;4.40;;;11.00;80.80;;;;;;5087438;28;20086;-75
2023/04/28 05:49:49;;;;;;;8.07;4.85;;;11.10;81.10;;;;;;5075934;28;20029;-75
2023/04/28 05:52:14;;;;;;;9.40;4.80;;;11.10;81.20;;;;;;5081887;28;20313;-75
2023/04/28 05:54:40;;;;;;;6.38;4.07;;;11.10;81.40;;;;;;5094659;28;20418;-75
2023/04/28 05:57:07;;;;;;;7.18;4.85;;;11.10;81.80;;;;;;5096020;28;20424;-75
2023/04/28 05:59:32;;;;;;;8.48;3.17;;;11.10;81.30;;;;;;5095781;28;20016;-75
2023/04/28 06:01:58;;;;;;;5.20;3.22;;;11.20;82.50;;;;;;5094641;28;20027;-74
2023/04/28 06:04:24;;;;;;;8.05;3.20;;;11.40;84.30;;;;;;5088657;28;20028;-75
2023/04/28 06:06:50;;;;;;;4.93;2.65;;;11.40;86.50;;;;;;5074408;28;20027;-75
2023/04/28 06:09:15;;;;;;;4.90;2.70;;;11.50;86.80;;;;;;5074453;28;20380;-75
2023/04/28 06:11:41;;;;;;;4.53;2.80;;;11.70;88.60;;;;;;5077000;28;20074;-75
2023/04/28 06:14:06;;;;;;;5.35;3.00;;;11.70;88.70;;;;;;5079467;28;20094;-75
2023/04/28 06:16:32;;;;;;;4.38;2.50;;;11.70;87.60;;;;;;5079111;28;20119;-74
2023/04/28 06:18:57;;;;;;;4.63;2.60;;;11.80;88.90;;;;;;5105573;28;20042;-75
2023/04/28 06:21:24;;;;;;;5.20;2.80;;;11.80;89.30;;;;;;5120018;28;20076;-75
2023/04/28 06:23:49;;;;;;;4.95;2.97;;;11.80;87.70;;;;;;5118640;28;20366;-74
2023/04/28 06:26:16;;;;;;;5.18;3.03;;;11.90;88.10;;;;;;5094491;28;20032;-75
2023/04/28 06:28:42;;;;;;;6.60;3.75;;;11.90;89.00;;;;;;5090190;28;20081;-74
2023/04/28 06:31:08;;;;;;;4.47;2.58;;;11.90;88.70;;;;;;5078998;28;20103;-74
2023/04/28 06:33:33;;;;;;;4.78;2.90;;;11.90;90.70;;;;;;5093112;28;20047;-74
2023/04/28 06:35:59;;;;;;;4.50;2.78;;;12.00;88.90;;;;;;5099114;28;20023;-74
2023/04/28 06:38:25;;;;;;;5.32;2.70;;;12.00;90.00;;;;;;5099455;28;20028;-74
2023/04/28 06:40:51;;;;;;;5.32;3.17;;;12.00;90.40;;;;;;5112915;28;20023;-74
2023/04/28 06:43:16;;;;;;;5.97;3.10;;;12.00;89.60;;;;;;5119487;28;20518;-74
2023/04/28 06:45:45;;;;;;;5.00;3.30;;;12.00;90.20;;;;;;5104298;28;20032;-74
2023/04/28 06:48:11;;;;;;;5.47;2.97;;;12.00;90.00;;;;;;5098976;28;20073;-74
2023/04/28 06:50:36;;;;;;;5.57;3.08;;;12.00;91.30;;;;;;5099065;28;20371;-74
2023/04/28 06:53:02;;;;;;;5.10;3.05;;;12.00;90.20;;;;;;5097717;28;20450;-74
2023/04/28 06:55:28;;;;;;;5.32;3.00;;;12.10;90.50;;;;;;5098863;28;20090;-74
2023/04/28 06:57:56;;;;;;;5.20;3.58;;;12.10;89.80;;;;;;5097831;28;20028;-75
2023/04/28 07:00:21;;;;;;;5.40;3.17;;;12.10;89.20;;;;;;5097587;28;20043;-75
2023/04/28 07:02:47;;;;;;;6.75;3.45;;;12.00;89.00;;;;;;5098920;28;20024;-74
2023/04/28 07:05:13;;;;;;;6.22;3.00;;;12.00;88.70;;;;;;5094409;28;20039;-75
2023/04/28 07:07:38;;;;;;;8.35;5.57;;;12.00;87.30;;;;;;5091944;28;20100;-75
2023/04/28 07:10:05;;;;;;;8.60;5.25;;;12.00;87.40;;;;;;5094727;28;20035;-75
2023/04/28 07:12:30;;;;;;;7.72;3.08;;;12.00;87.30;;;;;;5093016;28;20029;-75
2023/04/28 07:14:56;;;;;;;5.13;2.72;;;12.00;87.10;;;;;;5087822;28;20031;-75
2023/04/28 07:17:22;;;;;;;6.35;2.78;;;12.00;86.10;;;;;;5096720;28;20043;-78
2023/04/28 07:19:49;;;;;;;4.10;2.42;;;12.00;85.10;;;;;;5079219;28;20040;-78
2023/04/28 07:22:15;;;;;;;5.93;3.17;;;12.00;84.20;;;;;;5086820;28;20039;-77
2023/04/28 07:24:41;;;;;;;4.10;2.47;;;12.10;83.00;;;;;;5095298;28;20107;-77
2023/04/28 07:27:09;;;;;;;5.90;2.80;;;12.10;83.10;;;;;;5098113;28;20104;-76
2023/04/28 07:29:35;;;;;;;5.55;2.63;;;12.10;83.10;;;;;;5091637;28;20039;-77
2023/04/28 07:32:03;;;;;;;4.22;1.92;;;12.20;82.30;;;;;;5081334;28;20021;-76
2023/04/28 07:34:28;;;;;;;3.38;1.70;;;12.20;84.00;;;;;;5077002;28;20017;-75
2023/04/28 07:36:55;;;;;;;4.82;1.90;;;12.30;84.40;;;;;;5077818;28;20027;-75
2023/04/28 07:39:21;;;;;;;4.18;2.20;;;12.30;85.90;;;;;;5075524;28;20025;-76
2023/04/28 07:41:47;;;;;;;4.15;1.80;;;12.30;84.80;;;;;;5076783;28;20078;-76
2023/04/28 07:44:12;;;;;;;3.47;1.92;;;12.30;84.60;;;;;;5077642;28;20029;-75
2023/04/28 07:46:38;;;;;;;3.28;1.52;;;12.30;83.30;;;;;;5077805;28;20099;-75
2023/04/28 07:49:03;;;;;;;4.80;1.88;;;12.30;84.60;;;;;;5077585;28;20031;-74
2023/04/28 07:51:29;;;;;;;2.75;1.52;;;12.40;86.10;;;;;;5077629;28;20014;-74
2023/04/28 07:53:55;;;;;;;4.22;1.77;;;12.40;85.80;;;;;;5076318;28;20313;-76
2023/04/28 07:56:21;;;;;;;4.18;1.70;;;12.40;85.60;;;;;;5077422;28;20032;-78
2023/04/28 07:58:47;;;;;;;5.03;2.30;;;12.40;85.30;;;;;;5076436;28;20028;-79
2023/04/28 08:01:12;;;;;;;6.30;1.77;;;12.40;83.40;;;;;;5077335;28;20024;-77
2023/04/28 08:03:38;;;;;;;3.83;2.03;;;12.40;83.20;;;;;;5077409;28;20299;-78
2023/04/28 08:06:04;;;;;;;4.75;1.88;;;12.30;82.60;;;;;;5077395;28;20032;-77
2023/04/28 08:08:30;;;;;;;4.45;1.90;;;12.30;83.60;;;;;;5075853;28;20024;-80
2023/04/28 08:10:56;;;;;;;4.90;1.92;;;12.30;81.80;;;;;;5087516;28;20074;-80
2023/04/28 08:13:21;;;;;;;4.63;1.90;;;12.30;81.70;;;;;;5076899;28;20427;-80
2023/04/28 08:15:48;;;;;;;3.95;2.05;;;12.30;82.30;;;;;;5086592;28;20043;-80
2023/04/28 08:18:14;;;;;;;2.95;1.63;;;12.20;80.20;;;;;;5081467;28;20031;-79
2023/04/28 08:20:40;;;;;;;5.22;1.80;;;12.20;79.20;;;;;;5097332;28;20024;-80
2023/04/28 08:23:07;;;;;;;2.55;1.40;;;12.30;78.50;;;;;;5084154;28;20044;-81
2023/04/28 08:25:33;;;;;;;3.88;1.60;;;12.30;81.00;;;;;;5076795;28;20036;-81
2023/04/28 08:27:59;;;;;;;3.08;1.50;;;12.30;80.60;;;;;;5076744;28;20028;-81
2023/04/28 08:30:24;;;;;;;4.88;1.60;;;12.30;79.40;;;;;;5076832;28;20074;-81
2023/04/28 08:32:50;;;;;;;2.75;1.60;;;12.30;79.10;;;;;;5076831;28;20048;-81
2023/04/28 08:35:16;;;;;;;4.32;1.75;;;12.30;77.40;;;;;;5079637;28;20028;-80
2023/04/28 08:37:42;;;;;;;4.32;2.38;;;12.40;78.50;;;;;;5075284;28;20029;-80
2023/04/28 08:40:08;;;;;;;5.47;2.10;;;12.40;76.60;;;;;;5076761;28;20432;-81
2023/04/28 08:42:36;;;;;;;4.18;2.15;;;12.40;78.30;;;;;;5076458;28;20025;-80
2023/04/28 08:45:03;;;;;;;3.58;1.50;;;12.50;75.70;;;;;;5076587;28;20082;-80
2023/04/28 08:47:40;;;;;;;3.85;2.22;;;12.60;79.30;;;;;;5075401;28;20032;-81
2023/04/28 08:50:11;;;;;;;6.65;2.83;;;12.60;78.10;;;;;;5076431;28;20024;-81
2023/04/28 08:52:37;;;;;;;4.07;2.05;;;12.70;76.50;;;;;;5075794;28;20099;-81
2023/04/28 08:55:08;;;;;;;4.55;2.22;;;12.80;76.10;;;;;;5086874;28;20021;-81
2023/04/28 08:57:41;;;;;;;5.32;3.08;;;12.80;76.30;;;;;;5095487;28;20028;-81
2023/04/28 09:00:07;;;;;;;3.30;1.80;;;12.90;74.70;;;;;;5091822;28;20019;-81
2023/04/28 09:02:32;;;;;;;3.92;2.25;;;13.00;75.40;;;;;;5076732;28;20052;-81
2023/04/28 09:04:58;;;;;;;5.25;2.92;;;13.00;80.40;;;;;;5075864;28;20071;-80
2023/04/28 09:07:24;;;;;;;4.57;1.73;;;13.00;80.60;;;;;;5075056;28;20040;-81
2023/04/28 09:09:49;;;;;;;4.70;3.00;;;12.90;79.90;;;;;;5075900;28;21020;-80
2023/04/28 09:12:16;;;;;;;5.05;2.50;;;12.90;78.90;;;;;;5093270;28;20029;-80
2023/04/28 09:14:42;;;;;;;2.33;1.30;;;12.90;78.00;;;;;;5076604;28;20066;-80
2023/04/28 09:17:12;;;;;;;8.02;5.03;;;12.80;79.30;;;;;;5094769;28;20048;-80
2023/04/28 09:19:41;;;;;;;3.25;1.80;;;12.80;77.20;;;;;;5086050;28;20020;-80
2023/04/28 09:22:07;;;;;;;2.85;1.13;;;12.70;76.30;;;;;;5075759;28;20016;-80
2023/04/28 09:24:39;;;;;;;4.78;2.80;;;12.70;77.20;;;;;;5084248;28;20087;-80
2023/04/28 09:27:09;;;;;;;3.17;1.60;;;12.60;75.20;;;;;;5091312;28;20027;-79
2023/04/28 09:29:36;;;;;;;2.28;1.23;;;12.60;73.50;;;;;;5094722;28;20305;-80
2023/04/28 09:32:21;;;;;;;2.85;1.52;;;12.50;73.70;;;;;;5077817;28;20074;-80
2023/04/28 09:34:49;;;;;;;4.78;2.72;;;12.50;72.70;;;;;;5075561;28;20029;-80
2023/04/28 09:37:22;;;;;;;4.45;2.10;;;12.60;71.80;;;;;;5077262;28;20036;-81
2023/04/28 09:39:53;;;;;;;2.75;1.38;;;12.70;71.90;;;;;;5088453;28;20027;-81
2023/04/28 09:42:57;;;;;;;2.72;1.20;;;12.80;71.30;;;;;;5088189;28;20115;-81
2023/04/28 09:45:23;;;;;;;4.25;1.40;;;13.00;74.20;;;;;;5020260;28;20325;-81
2023/04/28 09:47:49;;;;;;;3.08;1.40;;;13.10;75.60;;;;;;5037078;28;20099;-81
2023/04/28 09:50:16;;;;;;;5.15;2.15;;;13.10;76.60;;;;;;5066447;28;20036;-81
2023/04/28 09:52:55;;;;;;;3.72;1.70;;;13.10;78.70;;;;;;5081108;28;20394;-81
2023/04/28 09:55:21;;;;;;;3.67;1.60;;;13.20;76.60;;;;;;5082263;28;20031;-81
2023/04/28 09:57:48;;;;;;;4.43;1.80;;;13.40;81.00;;;;;;5097080;28;20028;-81
2023/04/28 10:00:15;;;;;;;3.15;1.63;;;13.60;80.40;;;;;;5084364;28;20035;-81
2023/04/28 10:02:42;;;;;;;2.92;1.23;;;13.80;82.90;;;;;;5090399;28;20024;-80
2023/04/28 10:05:08;;;;;;;2.80;1.20;;;14.00;84.20;;;;;;5100068;28;20024;-80
2023/04/28 10:07:34;;;;;;;2.80;1.10;;;14.20;87.70;;;;;;5098556;28;20047;-78
2023/04/28 10:10:00;;;;;;;3.50;1.67;;;14.30;89.80;;;;;;5099790;28;20077;-78
2023/04/28 10:12:26;;;;;;;4.20;1.50;;;14.30;88.50;;;;;;5099741;28;20408;-78
2023/04/28 10:14:56;;;;;;;2.75;1.30;;;14.40;91.60;;;;;;5099738;28;20028;-78
2023/04/28 10:17:24;;;;;;;5.07;1.85;;;14.50;88.40;;;;;;5098649;28;20139;-78
2023/04/28 10:19:53;;;;;;;5.55;1.50;;;14.70;92.00;;;;;;5099572;28;20409;-79
2023/04/28 10:22:51;;;;;;;2.13;1.05;;;15.00;92.30;;;;;;5099522;28;20020;-77
2023/04/28 10:25:31;;;;;;;4.22;1.40;;;14.90;94.40;;;;;;5054864;28;20115;-77
2023/04/28 10:27:59;;;;;;;3.35;1.20;;;14.60;91.00;;;;;;5099506;28;20027;-77
2023/04/28 10:30:27;;;;;;;2.95;1.30;;;14.50;88.00;;;;;;5098269;28;20031;-77
2023/04/28 10:33:05;;;;;;;3.35;1.40;;;14.70;92.10;;;;;;5099447;28;20047;-76
2023/04/28 10:35:35;;;;;;;4.57;1.52;;;14.80;88.80;;;;;;5099437;28;20012;-76
2023/04/28 10:38:08;;;;;;;2.78;1.30;;;15.10;94.70;;;;;;5096995;28;20028;-76
2023/04/28 10:40:42;;;;;;;2.97;1.38;;;15.40;93.80;;;;;;5099268;28;20036;-74
2023/04/28 10:43:12;;;;;;;2.50;1.17;;;15.70;94.30;;;;;;5099344;28;20035;-75
2023/04/28 10:45:58;;;;;;;2.28;1.10;;;15.90;97.20;;;;;;5097808;28;20440;-76
2023/04/28 10:48:33;;;;;;;3.40;1.60;;;16.30;97.60;;;;;;5098997;28;20027;-75
2023/04/28 10:51:11;;;;;;;3.65;1.45;;;16.20;96.70;;;;;;5099185;28;20017;-77
2023/04/28 10:56:20;;;;;;;4.47;1.20;;;15.70;94.90;;;;;;5098377;28;20449;-77
2023/04/28 10:58:47;;;;;;;2.55;1.10;;;15.50;95.30;;;;;;5094023;28;20082;-76
2023/04/28 11:01:28;;;;;;;3.75;1.83;;;14.90;92.80;;;;;;5079092;28;20020;-76
2023/04/28 11:04:12;;;;;;;3.75;1.23;;;14.50;88.60;;;;;;5079641;28;20046;-75
2023/04/28 11:06:39;;;;;;;2.40;1.20;;;14.40;91.00;;;;;;5077361;28;20429;-75
2023/04/28 11:09:13;;;;;;;2.78;1.30;;;14.50;89.00;;;;;;5082882;28;20093;-75
2023/04/28 11:12:09;;;;;;;3.17;1.50;;;14.70;92.00;;;;;;5097417;28;20027;-75
2023/04/28 11:14:37;;;;;;;4.35;1.98;;;14.90;91.00;;;;;;5078205;28;20033;-75
2023/04/28 11:17:04;;;;;;;2.33;1.20;;;15.20;92.50;;;;;;5078161;28;20052;-75
2023/04/28 11:19:33;;;;;;;2.75;1.20;;;15.40;95.70;;;;;;5079419;28;20442;-75
2023/04/28 11:22:01;;;;;;;1.98;0.90;;;15.30;95.80;;;;;;5078124;28;20032;-75
2023/04/28 11:24:28;;;;;;;2.45;1.00;;;15.30;94.60;;;;;;5076719;28;20052;-75
2023/04/28 11:26:57;;;;;;;4.20;1.23;;;15.90;96.00;;;;;;5078214;28;20028;-75
2023/04/28 11:29:34;;;;;;;2.15;0.90;;;16.60;97.20;;;;;;5081826;28;20024;-76
2023/04/28 11:32:00;;;;;;;1.95;1.02;;;17.00;97.50;;;;;;5097315;28;20078;-75
2023/04/28 11:34:26;;;;;;;2.47;0.90;;;17.50;97.30;;;;;;5096677;28;20020;-75
2023/04/28 11:36:52;;;;;;;1.50;0.90;;;17.70;96.20;;;;;;5098269;28;20027;-76
2023/04/28 11:39:28;;;;;;;1.90;0.90;;;17.40;96.00;;;;;;5090933;28;20020;-75
2023/04/28 11:41:54;;;;;;;2.17;0.90;;;17.20;96.20;;;;;;5077622;28;20108;-74
2023/04/28 11:44:22;;;;;;;2.80;1.15;;;17.00;96.60;;;;;;5082195;28;20028;-75
2023/04/28 11:46:56;;;;;;;2.60;0.98;;;16.70;97.00;;;;;;5097886;28;20428;-74
2023/04/28 11:49:29;;;;;;;2.85;1.10;;;16.20;96.60;;;;;;5092552;28;20032;-74
2023/04/28 11:51:56;;;;;;;1.80;0.90;;;16.00;97.20;;;;;;5096984;28;20321;-75
2023/04/28 11:54:22;;;;;;;1.77;0.70;;;16.10;97.30;;;;;;5095087;28;20095;-74
2023/04/28 11:56:48;;;;;;;0.85;0.63;;;16.20;97.50;;;;;;5096408;28;20020;-74
2023/04/28 11:59:14;;;;;;;3.25;1.50;;;16.10;97.20;;;;;;5095743;28;20440;-75
2023/04/28 12:01:48;;;;;;;1.95;0.90;;;16.00;97.40;;;;;;5097693;28;20055;-74
2023/04/28 12:04:26;;;;;;;2.33;0.95;;;16.00;97.90;;;;;;5096211;28;20051;-74
2023/04/28 12:07:06;;;;;;;1.98;1.02;;;15.90;97.50;;;;;;5096538;28;20032;-74
2023/04/28 12:09:34;;;;;;;0.93;0.70;;;16.00;97.30;;;;;;5094582;28;20054;-74
2023/04/28 12:12:03;;;;;;;1.98;0.80;;;16.20;97.50;;;;;;5096335;28;20107;-74
2023/04/28 12:14:31;;;;;;;3.65;1.40;;;16.20;97.20;;;;;;5093718;28;20123;-75
2023/04/28 12:16:57;;;;;;;1.73;0.95;;;16.40;97.30;;;;;;5076924;28;20048;-74
2023/04/28 12:19:23;;;;;;;1.33;0.70;;;16.30;97.00;;;;;;5076607;28;20440;-74
2023/04/28 12:22:05;;;;;;;1.27;0.70;;;16.30;96.80;;;;;;5076978;28;20035;-74
2023/04/28 12:24:31;;;;;;;2.17;0.75;;;16.20;97.00;;;;;;5075752;28;20025;-74
2023/04/28 12:27:16;;;;;;;1.02;0.50;;;16.40;97.00;;;;;;5076872;28;20021;-73
2023/04/28 12:29:44;;;;;;;1.38;0.60;;;16.50;95.90;;;;;;5076572;28;20374;-74
2023/04/28 12:32:11;;;;;;;2.70;0.70;;;16.50;96.20;;;;;;5076521;28;20095;-75
2023/04/28 12:34:40;;;;;;;1.05;0.70;;;16.70;96.30;;;;;;5077216;28;20020;-74
2023/04/28 12:37:06;;;;;;;2.30;0.90;;;16.90;96.00;;;;;;5076731;28;20040;-75
2023/04/28 12:39:33;;;;;;;0.80;0.50;;;17.00;96.00;;;;;;5075434;28;20421;-74
2023/04/28 12:41:59;;;;;;;1.80;0.82;;;17.00;95.50;;;;;;5076673;28;20025;-74
2023/04/28 12:44:26;;;;;;;2.75;0.70;;;17.00;96.10;;;;;;5076120;28;20047;-74
2023/04/28 12:46:53;;;;;;;0.73;0.60;;;16.90;95.50;;;;;;5088439;28;20098;-74
2023/04/28 12:49:19;;;;;;;0.95;0.70;;;16.80;95.80;;;;;;5083965;28;20047;-74